Time;durP1;ratioP1;P1;durP2;ratioP2;P2;SDS_P1;SDS_P2;PMS_P1;PMS_P2;Temp;Humidity;BMP_temperature;BMP_pressure;BME280_temperature;BME280_humidity;BME280_pressure;Samples;Min_cycle;Max_cycle;Signal;HPM_P1;HPM_P2
2022/12/09 00:00:44;;;;;;;14.07;7.20;;;-5.40;1.00;-5.10;92785.00;;;;7397714;19;20133;-75
2022/12/09 00:03:11;;;;;;;13.27;7.57;;;-5.40;1.00;-5.00;92768.00;;;;7398377;19;20152;-75
2022/12/09 00:05:49;;;;;;;13.40;7.40;;;-5.30;1.00;-4.90;92769.00;;;;7398431;19;20160;-75
2022/12/09 00:08:17;;;;;;;13.00;7.20;;;-5.30;1.00;-4.90;92763.00;;;;7398443;19;20148;-74
2022/12/09 00:10:44;;;;;;;12.40;7.37;;;-5.30;1.00;-4.90;92774.00;;;;7400384;19;20568;-75
2022/12/09 00:13:18;;;;;;;14.20;7.63;;;-5.20;1.00;-4.90;92760.00;;;;7397927;19;20152;-75
2022/12/09 00:15:46;;;;;;;13.30;7.63;;;-5.20;1.00;-4.90;92763.00;;;;7397330;19;20135;-75
2022/12/09 00:18:13;;;;;;;15.43;8.33;;;-5.20;1.00;-5.10;92779.00;;;;7399688;19;20141;-75
2022/12/09 00:20:46;;;;;;;13.53;7.20;;;-5.30;1.00;-5.10;92751.00;;;;7395468;19;20156;-75
2022/12/09 00:23:13;;;;;;;13.90;8.17;;;-5.30;1.00;-4.90;92769.00;;;;7397102;19;20178;-75
2022/12/09 00:25:41;;;;;;;11.37;6.97;;;-5.30;1.00;-4.80;92743.00;;;;7397857;19;20136;-75
2022/12/09 00:28:14;;;;;;;15.00;7.17;;;-5.20;1.00;-4.80;92770.00;;;;7397694;19;20145;-75
2022/12/09 00:30:41;;;;;;;13.23;7.63;;;-5.20;1.00;-4.80;92762.00;;;;7396796;19;20608;-74
2022/12/09 00:33:08;;;;;;;12.63;7.27;;;-5.10;1.00;-4.70;92753.00;;;;7397517;19;20640;-75
2022/12/09 00:35:41;;;;;;;13.63;7.20;;;-5.10;1.00;-4.70;92745.00;;;;7397150;19;20182;-75
2022/12/09 00:38:09;;;;;;;11.57;6.53;;;-5.00;1.00;-4.80;92757.00;;;;7399284;19;20579;-75
2022/12/09 00:40:36;;;;;;;13.67;7.30;;;-5.00;1.00;-4.80;92748.00;;;;7397310;19;20231;-75
2022/12/09 00:43:12;;;;;;;11.17;7.00;;;-5.00;1.00;-4.90;92748.00;;;;7386805;19;20575;-75
2022/12/09 00:45:39;;;;;;;14.80;7.20;;;-5.00;1.00;-4.70;92759.00;;;;7392941;19;20279;-75
2022/12/09 00:48:06;;;;;;;10.07;6.90;;;-5.00;1.00;-4.70;92751.00;;;;7396983;19;20148;-75
2022/12/09 00:50:47;;;;;;;11.13;6.40;;;-5.00;1.00;-4.80;92725.00;;;;7397891;19;20547;-75
2022/12/09 00:53:14;;;;;;;10.07;6.50;;;-5.00;1.00;-4.70;92736.00;;;;7396787;19;20284;-74
2022/12/09 00:55:48;;;;;;;10.73;6.33;;;-5.00;1.00;-4.80;92728.00;;;;7397263;19;20150;-76
2022/12/09 00:58:16;;;;;;;11.73;6.20;;;-5.00;1.00;-4.80;92738.00;;;;7396899;19;20145;-75
2022/12/09 01:00:43;;;;;;;10.33;6.43;;;-5.00;1.00;-4.80;92737.00;;;;7395815;19;20599;-75
2022/12/09 01:03:17;;;;;;;14.67;6.90;;;-5.10;1.00;-4.80;92723.00;;;;7397874;19;20468;-75
2022/12/09 01:05:45;;;;;;;9.43;5.33;;;-5.10;1.00;-4.80;92733.00;;;;7397172;19;20173;-75
2022/12/09 01:08:13;;;;;;;8.97;5.27;;;-5.10;1.00;-4.90;92757.00;;;;7396143;19;20631;-75
2022/12/09 01:10:47;;;;;;;10.23;5.80;;;-5.10;1.00;-4.80;92764.00;;;;7398352;19;20133;-75
2022/12/09 01:13:16;;;;;;;9.67;5.83;;;-5.10;1.00;-4.80;92756.00;;;;7396923;19;20125;-75
2022/12/09 01:15:43;;;;;;;9.20;5.40;;;-5.10;1.00;-4.90;92759.00;;;;7397638;19;20121;-74
2022/12/09 01:18:16;;;;;;;12.30;6.20;;;-5.10;1.00;-5.00;92761.00;;;;7395967;19;20160;-76
2022/12/09 01:20:43;;;;;;;12.13;6.20;;;-5.10;1.00;-4.90;92742.00;;;;7396130;19;20139;-75
2022/12/09 01:23:11;;;;;;;10.70;5.10;;;-5.10;1.00;-4.90;92754.00;;;;7396533;19;20181;-75
2022/12/09 01:25:44;;;;;;;9.50;5.93;;;-5.10;1.00;-5.00;92754.00;;;;7396743;19;20157;-75
2022/12/09 01:28:11;;;;;;;9.13;5.07;;;-5.20;1.00;-4.80;92761.00;;;;7396733;19;20611;-74
2022/12/09 01:30:39;;;;;;;8.73;5.30;;;-5.10;1.00;-4.90;92764.00;;;;7395841;19;20157;-75
2022/12/09 01:33:14;;;;;;;8.93;5.37;;;-5.20;1.00;-5.00;92762.00;;;;7402754;19;20130;-75
2022/12/09 01:35:41;;;;;;;9.13;5.30;;;-5.20;1.00;-5.10;92751.00;;;;7403325;19;20156;-75
2022/12/09 01:38:08;;;;;;;7.20;4.73;;;-5.30;1.00;-5.00;92726.00;;;;7400407;19;20141;-74
2022/12/09 01:40:45;;;;;;;7.03;4.73;;;-5.30;1.00;-4.80;92737.00;;;;7401381;19;20604;-73
2022/12/09 01:43:17;;;;;;;8.73;4.23;;;-5.20;1.00;-4.70;92737.00;;;;7403385;19;20141;-75
2022/12/09 01:45:52;;;;;;;9.47;4.40;;;-5.10;1.00;-4.80;92707.00;;;;7402836;19;20157;-75
2022/12/09 01:48:34;;;;;;;6.23;4.17;;;-5.10;1.00;-5.00;92730.00;;;;7401328;19;20169;-75
2022/12/09 01:51:12;;;;;;;6.63;4.40;;;-5.20;1.00;-5.10;92702.00;;;;7399040;19;20152;-74
2022/12/09 01:53:44;;;;;;;5.63;3.77;;;-5.20;1.00;-5.10;92710.00;;;;7403597;19;20642;-75
2022/12/09 01:56:29;;;;;;;9.13;4.17;;;-5.30;1.00;-5.10;92728.00;;;;7401963;19;20148;-75
2022/12/09 01:59:05;;;;;;;6.07;3.67;;;-5.20;1.00;-5.00;92700.00;;;;7401845;19;20165;-75
2022/12/09 02:01:45;;;;;;;6.27;3.30;;;-5.30;1.00;-5.10;92701.00;;;;7400778;19;20145;-75
2022/12/09 02:04:12;;;;;;;4.97;3.70;;;-5.30;1.00;-5.10;92705.00;;;;7402045;19;20465;-74
2022/12/09 02:06:39;;;;;;;5.13;3.17;;;-5.30;1.00;-5.10;92695.00;;;;7401454;19;20139;-75
2022/12/09 02:09:14;;;;;;;5.77;3.50;;;-5.30;1.00;-5.10;92708.00;;;;7401891;19;20152;-74
2022/12/09 02:12:24;;;;;;;6.97;3.43;;;-5.40;1.00;-5.10;92706.00;;;;7401541;19;20157;-75
2022/12/09 02:15:05;;;;;;;4.33;3.27;;;-5.40;1.00;-5.00;92667.00;;;;7399637;19;20210;-75
2022/12/09 02:17:42;;;;;;;5.93;3.60;;;-5.30;1.00;-5.00;92681.00;;;;7401029;19;20820;-74
2022/12/09 02:20:44;;;;;;;6.50;4.37;;;-5.30;1.00;-5.10;92687.00;;;;7399042;19;20136;-75
2022/12/09 02:23:37;;;;;;;6.83;4.53;;;-5.30;1.00;-5.10;92661.00;;;;7400888;19;20464;-75
2022/12/09 02:26:44;;;;;;;6.77;4.20;;;-5.30;1.00;-5.10;92689.00;;;;7402465;19;20136;-75
2022/12/09 02:29:50;;;;;;;6.97;3.87;;;-5.40;1.00;-5.20;92687.00;;;;7401738;19;20148;-75
2022/12/09 02:33:07;;;;;;;4.80;3.57;;;-5.40;1.00;-5.20;92691.00;;;;7403317;19;20481;-75
2022/12/09 02:35:52;;;;;;;7.03;3.80;;;-5.50;1.00;-5.30;92669.00;;;;7399205;19;20157;-75
2022/12/09 02:38:32;;;;;;;7.30;4.33;;;-5.50;99.90;-5.40;92658.00;;;;7399153;19;20154;-75
2022/12/09 02:41:24;;;;;;;7.20;4.33;;;-5.60;99.90;-5.40;92670.00;;;;7401167;19;20169;-73
2022/12/09 02:44:14;;;;;;;5.87;3.67;;;-5.60;99.90;-5.40;92677.00;;;;7399086;19;20173;-75
2022/12/09 02:46:42;;;;;;;5.90;3.80;;;-5.70;99.90;-5.40;92684.00;;;;7401324;19;20211;-74
2022/12/09 02:49:28;;;;;;;6.57;3.97;;;-5.70;99.90;-5.30;92660.00;;;;7401084;19;20152;-75
2022/12/09 02:51:57;;;;;;;7.33;4.40;;;-5.60;99.90;-5.30;92670.00;;;;7401200;19;20148;-76
2022/12/09 02:54:35;;;;;;;8.17;4.13;;;-5.70;99.90;-5.40;92645.00;;;;7400666;19;20148;-76
2022/12/09 02:57:14;;;;;;;7.73;4.20;;;-5.70;99.90;-5.40;92649.00;;;;7402992;19;20156;-75
2022/12/09 02:59:48;;;;;;;8.00;4.90;;;-5.80;99.90;-5.60;92642.00;;;;7401689;19;20167;-75
2022/12/09 03:02:42;;;;;;;6.10;4.10;;;-5.80;99.90;-5.60;92664.00;;;;7400777;19;20609;-75
2022/12/09 03:05:46;;;;;;;7.70;4.57;;;-5.90;99.90;-5.60;92661.00;;;;7401696;19;20620;-75
2022/12/09 03:08:19;;;;;;;9.07;5.13;;;-6.00;99.90;-5.50;92639.00;;;;7401019;19;20177;-75
2022/12/09 03:10:56;;;;;;;7.50;5.10;;;-6.00;99.90;-5.50;92647.00;;;;7400452;19;20140;-75
2022/12/09 03:13:55;;;;;;;8.07;5.00;;;-6.00;99.90;-5.50;92638.00;;;;7401034;19;20140;-75
2022/12/09 03:16:38;;;;;;;13.83;5.30;;;-6.00;99.90;-5.50;92645.00;;;;7399718;19;20157;-75
2022/12/09 03:19:34;;;;;;;8.17;5.10;;;-6.00;99.90;-5.70;92643.00;;;;7399913;19;20167;-74
2022/12/09 03:22:14;;;;;;;8.40;5.00;;;-6.10;99.90;-5.70;92645.00;;;;7400796;19;20460;-75
2022/12/09 03:25:04;;;;;;;6.97;4.57;;;-6.10;99.90;-5.70;92633.00;;;;7398087;19;20146;-75
2022/12/09 03:27:54;;;;;;;8.70;4.90;;;-6.20;99.90;-5.80;92622.00;;;;7399939;19;20160;-75
2022/12/09 03:30:21;;;;;;;9.87;4.70;;;-6.20;99.90;-5.90;92631.00;;;;7400704;19;20494;-76
2022/12/09 03:32:57;;;;;;;8.67;4.67;;;-6.30;99.90;-5.80;92619.00;;;;7399510;19;20637;-75
2022/12/09 03:35:34;;;;;;;9.07;5.20;;;-6.30;99.90;-5.60;92608.00;;;;7393880;19;20491;-74
2022/12/09 03:38:14;;;;;;;8.70;5.20;;;-6.30;99.90;-5.60;92623.00;;;;7397345;19;20479;-75
2022/12/09 03:40:44;;;;;;;10.17;6.80;;;-6.20;99.90;-5.50;92610.00;;;;7398583;19;20145;-75
2022/12/09 03:43:26;;;;;;;10.30;5.93;;;-6.10;99.90;-5.50;92590.00;;;;7399521;19;20156;-74
2022/12/09 03:45:55;;;;;;;10.97;7.13;;;-6.00;99.90;-5.50;92614.00;;;;7398709;19;20481;-75
2022/12/09 03:48:37;;;;;;;13.30;6.73;;;-6.10;99.90;-5.50;92610.00;;;;7397254;19;20191;-75
2022/12/09 03:51:21;;;;;;;10.40;6.77;;;-6.00;99.90;-5.60;92616.00;;;;7398583;19;20157;-74
2022/12/09 03:54:13;;;;;;;11.17;6.77;;;-6.00;99.90;-5.70;92622.00;;;;7400860;19;20584;-76
2022/12/09 03:56:47;;;;;;;11.90;7.03;;;-6.00;99.90;-5.70;92623.00;;;;7398962;19;20156;-75
2022/12/09 03:59:27;;;;;;;12.27;6.60;;;-6.10;99.90;-5.80;92619.00;;;;7398284;19;20148;-75
2022/12/09 04:01:55;;;;;;;10.07;6.37;;;-6.10;99.90;-5.60;92627.00;;;;7399383;19;20140;-75
2022/12/09 04:04:29;;;;;;;10.70;6.67;;;-6.10;99.90;-5.50;92610.00;;;;7396593;19;20594;-75
2022/12/09 04:06:56;;;;;;;11.67;6.80;;;-6.10;99.90;-5.60;92600.00;;;;7398850;19;20148;-75
2022/12/09 04:09:24;;;;;;;12.50;7.63;;;-6.10;99.90;-5.50;92609.00;;;;7400164;19;20160;-75
2022/12/09 04:11:58;;;;;;;13.97;8.13;;;-6.10;99.90;-5.50;92585.00;;;;7397431;19;20196;-75
2022/12/09 04:14:25;;;;;;;13.30;8.03;;;-6.00;99.90;-5.50;92591.00;;;;7396595;19;20592;-74
2022/12/09 04:16:52;;;;;;;14.47;7.87;;;-6.00;99.90;-5.40;92609.00;;;;7397219;19;20639;-74
2022/12/09 04:19:27;;;;;;;15.47;8.10;;;-6.00;99.90;-5.40;92571.00;;;;7400223;19;20141;-74
2022/12/09 04:21:54;;;;;;;11.70;7.97;;;-6.00;99.90;-5.40;92590.00;;;;7396952;19;20228;-75
2022/12/09 04:24:21;;;;;;;13.50;7.53;;;-6.00;99.90;-5.30;92573.00;;;;7397855;19;20150;-74
2022/12/09 04:26:54;;;;;;;12.30;7.27;;;-5.90;99.90;-5.30;92587.00;;;;7395149;19;20216;-75
2022/12/09 04:29:21;;;;;;;11.37;7.53;;;-5.90;99.90;-5.40;92571.00;;;;7397195;19;20160;-75
2022/12/09 04:31:49;;;;;;;15.57;8.57;;;-5.90;99.90;-5.40;92577.00;;;;7395484;19;20137;-74
2022/12/09 04:34:22;;;;;;;13.60;6.87;;;-5.90;99.90;-5.40;92562.00;;;;7397724;19;20600;-75
2022/12/09 04:36:50;;;;;;;10.40;6.37;;;-5.90;99.90;-5.30;92547.00;;;;7399223;19;20604;-75
2022/12/09 04:39:18;;;;;;;9.70;6.37;;;-5.80;99.90;-5.30;92553.00;;;;7398057;19;20164;-75
2022/12/09 04:41:51;;;;;;;12.03;6.43;;;-5.80;99.90;-5.30;92559.00;;;;7394879;19;20137;-75
2022/12/09 04:44:19;;;;;;;9.73;6.03;;;-5.80;99.90;-5.30;92558.00;;;;7396357;19;20129;-75
2022/12/09 04:46:46;;;;;;;9.03;5.70;;;-5.80;99.90;-5.30;92549.00;;;;7396793;19;20125;-75
2022/12/09 04:49:32;;;;;;;11.07;6.57;;;-5.70;99.90;-5.30;92564.00;;;;7397660;19;20675;-75
2022/12/09 04:52:06;;;;;;;9.87;6.37;;;-5.80;99.90;-5.30;92545.00;;;;7397967;19;20129;-75
2022/12/09 04:54:40;;;;;;;9.10;6.03;;;-5.80;99.90;-5.30;92535.00;;;;7399096;19;20132;-75
2022/12/09 04:57:08;;;;;;;9.53;6.07;;;-5.80;99.90;-5.20;92541.00;;;;7397403;19;20619;-75
2022/12/09 04:59:35;;;;;;;9.33;5.83;;;-5.80;99.90;-5.30;92539.00;;;;7396865;19;20163;-75
2022/12/09 05:02:08;;;;;;;12.70;6.63;;;-5.80;99.90;-5.30;92548.00;;;;7395970;19;20148;-75
2022/12/09 05:04:36;;;;;;;13.13;6.97;;;-5.80;99.90;-5.30;92537.00;;;;7398538;19;20124;-75
2022/12/09 05:07:03;;;;;;;11.17;6.67;;;-5.70;99.90;-5.30;92529.00;;;;7395156;19;20120;-75
2022/12/09 05:09:37;;;;;;;12.60;6.53;;;-5.70;99.90;-5.30;92547.00;;;;7397400;19;20148;-75
2022/12/09 05:12:04;;;;;;;11.43;5.83;;;-5.80;99.90;-5.40;92540.00;;;;7397165;19;20139;-75
2022/12/09 05:14:32;;;;;;;9.17;6.17;;;-5.80;99.90;-5.40;92528.00;;;;7395390;19;20600;-75
2022/12/09 05:17:06;;;;;;;10.00;6.23;;;-5.80;99.90;-5.30;92532.00;;;;7396788;19;20172;-75
2022/12/09 05:19:33;;;;;;;9.33;5.90;;;-5.80;99.90;-5.20;92537.00;;;;7398001;19;20121;-75
2022/12/09 05:22:00;;;;;;;14.23;7.37;;;-5.70;99.90;-5.00;92519.00;;;;7396998;19;20527;-75
2022/12/09 05:24:34;;;;;;;8.60;6.57;;;-5.60;99.90;-4.90;92533.00;;;;7398295;19;20474;-75
2022/12/09 05:27:02;;;;;;;11.53;6.90;;;-5.50;99.90;-4.90;92529.00;;;;7395722;19;20200;-75
2022/12/09 05:29:29;;;;;;;12.47;6.93;;;-5.40;99.90;-4.80;92538.00;;;;7395751;19;20200;-75
2022/12/09 05:32:04;;;;;;;13.67;7.77;;;-5.30;99.90;-4.80;92517.00;;;;7397859;19;20216;-74
2022/12/09 05:34:32;;;;;;;11.63;7.63;;;-5.30;99.90;-4.90;92536.00;;;;7398857;19;20611;-75
2022/12/09 05:37:00;;;;;;;12.47;7.97;;;-5.30;99.90;-4.90;92517.00;;;;7395709;19;20133;-75
2022/12/09 05:39:34;;;;;;;13.17;8.10;;;-5.30;99.90;-5.10;92520.00;;;;7396383;19;20142;-75
2022/12/09 05:42:01;;;;;;;11.03;7.20;;;-5.30;99.90;-5.10;92512.00;;;;7396704;19;20143;-75
2022/12/09 05:44:29;;;;;;;11.63;7.17;;;-5.40;99.90;-5.00;92525.00;;;;7391589;19;20164;-75
2022/12/09 05:47:03;;;;;;;11.23;6.77;;;-5.40;99.90;-4.90;92499.00;;;;7397730;19;20144;-76
2022/12/09 05:49:37;;;;;;;14.23;7.33;;;-5.40;99.90;-4.70;92506.00;;;;7393651;19;20155;-75
2022/12/09 05:52:13;;;;;;;12.63;8.00;;;-5.20;99.90;-4.50;92469.00;;;;7395449;19;20615;-75
2022/12/09 05:54:40;;;;;;;16.40;8.70;;;-5.10;99.90;-4.60;92502.00;;;;7395558;19;20144;-75
2022/12/09 05:57:08;;;;;;;20.07;8.40;;;-5.10;85.30;-4.80;92490.00;;;;7397293;19;20136;-75
2022/12/09 05:59:42;;;;;;;13.63;8.60;;;-5.10;27.90;-4.80;92500.00;;;;7395511;19;20136;-75
2022/12/09 06:02:09;;;;;;;12.07;7.17;;;-5.10;23.30;-4.80;92518.00;;;;7394978;19;20141;-73
2022/12/09 06:04:37;;;;;;;13.97;8.57;;;-5.10;29.30;-5.00;92498.00;;;;7393921;19;20200;-76
2022/12/09 06:07:11;;;;;;;10.67;7.17;;;-5.20;1.00;-5.00;92510.00;;;;7394943;19;20149;-75
2022/12/09 06:09:39;;;;;;;14.63;8.10;;;-5.20;12.40;-4.90;92486.00;;;;7395059;19;20135;-75
2022/12/09 06:12:07;;;;;;;12.07;8.10;;;-5.20;55.40;-4.80;92497.00;;;;7395512;19;20129;-75
2022/12/09 06:14:41;;;;;;;14.27;7.93;;;-5.20;99.90;-4.70;92513.00;;;;7393370;19;20137;-75
2022/12/09 06:17:08;;;;;;;13.27;8.43;;;-5.10;90.90;-4.60;92483.00;;;;7395392;19;20188;-75
2022/12/09 06:19:35;;;;;;;12.63;7.77;;;-5.10;53.90;-4.70;92507.00;;;;7398895;19;20133;-75
2022/12/09 06:22:10;;;;;;;13.20;8.47;;;-5.00;1.00;-4.80;92495.00;;;;7402682;19;20132;-75
2022/12/09 06:24:38;;;;;;;12.43;8.30;;;-5.00;1.00;-4.70;92509.00;;;;7402278;19;20137;-75
2022/12/09 06:27:05;;;;;;;13.77;8.73;;;-5.00;1.00;-4.60;92510.00;;;;7399702;19;20590;-75
2022/12/09 06:29:39;;;;;;;14.67;9.23;;;-5.00;1.00;-4.50;92491.00;;;;7401832;19;20129;-75
2022/12/09 06:32:07;;;;;;;15.30;8.53;;;-4.90;1.00;-4.60;92492.00;;;;7400889;19;20497;-75
2022/12/09 06:34:34;;;;;;;15.67;9.23;;;-4.90;1.00;-4.50;92507.00;;;;7402448;19;20129;-75
2022/12/09 06:37:08;;;;;;;14.47;9.37;;;-4.90;1.00;-4.50;92510.00;;;;7399520;19;20149;-75
2022/12/09 06:39:35;;;;;;;14.17;8.77;;;-4.90;1.00;-4.60;92500.00;;;;7400513;19;20200;-75
2022/12/09 06:42:08;;;;;;;16.30;10.10;;;-4.90;1.00;-4.50;92427.00;;;;7398126;19;20487;-76
2022/12/09 06:44:43;;;;;;;15.50;9.90;;;-4.90;1.00;-4.50;92518.00;;;;7402565;19;20149;-75
2022/12/09 06:47:10;;;;;;;17.40;10.30;;;-4.80;1.00;-4.50;92507.00;;;;7402905;19;20131;-74
2022/12/09 06:49:37;;;;;;;17.13;9.77;;;-4.90;1.00;-4.50;92516.00;;;;7400679;19;20153;-75
2022/12/09 06:52:18;;;;;;;16.83;9.93;;;-4.80;14.90;-4.50;92512.00;;;;7401613;19;20583;-75
2022/12/09 06:54:46;;;;;;;16.57;10.30;;;-4.80;38.50;-4.40;92508.00;;;;7403097;19;20346;-75
2022/12/09 06:57:20;;;;;;;13.67;9.33;;;-4.80;99.90;-4.40;92488.00;;;;7400579;19;20160;-74
2022/12/09 06:59:47;;;;;;;20.40;10.53;;;-4.80;99.90;-4.30;92499.00;;;;7399936;19;20132;-74
2022/12/09 07:02:15;;;;;;;17.27;10.10;;;-4.70;99.90;-4.20;92500.00;;;;7401867;19;20129;-75
2022/12/09 07:04:54;;;;;;;17.77;10.60;;;-4.70;99.90;-4.10;92493.00;;;;7401013;19;20217;-76
2022/12/09 07:07:22;;;;;;;18.03;11.80;;;-4.60;99.90;-4.10;92491.00;;;;7401470;19;20592;-75
2022/12/09 07:09:56;;;;;;;19.10;11.27;;;-4.60;73.70;-4.20;92488.00;;;;7402179;19;20461;-76
2022/12/09 07:12:24;;;;;;;17.23;10.73;;;-4.60;1.80;-4.30;92486.00;;;;7399641;19;20458;-75
2022/12/09 07:14:52;;;;;;;16.43;10.43;;;-4.60;1.00;-4.10;92492.00;;;;7397679;19;20178;-77
2022/12/09 07:17:26;;;;;;;16.90;10.43;;;-4.50;1.00;-4.00;92471.00;;;;7399832;19;20144;-77
2022/12/09 07:19:54;;;;;;;19.03;10.83;;;-4.50;1.00;-4.00;92492.00;;;;7398054;19;20609;-77
2022/12/09 07:22:23;;;;;;;19.63;10.57;;;-4.50;1.00;-4.10;92483.00;;;;7400486;19;20137;-77
2022/12/09 07:24:57;;;;;;;17.70;11.20;;;-4.50;1.00;-4.20;92472.00;;;;7399220;19;20610;-78
2022/12/09 07:27:25;;;;;;;17.53;11.27;;;-4.50;1.00;-4.20;92501.00;;;;7398764;19;20130;-76
2022/12/09 07:29:52;;;;;;;16.30;10.93;;;-4.50;1.00;-4.00;92498.00;;;;7398808;19;20155;-76
2022/12/09 07:32:26;;;;;;;19.90;11.80;;;-4.40;1.00;-3.90;92498.00;;;;7398941;19;20133;-76
2022/12/09 07:34:54;;;;;;;17.93;10.83;;;-4.40;1.00;-3.70;92472.00;;;;7400577;19;20656;-76
2022/12/09 07:37:21;;;;;;;17.37;9.93;;;-4.30;1.00;-3.60;92494.00;;;;7398814;19;20484;-75
2022/12/09 07:39:54;;;;;;;18.23;10.90;;;-4.30;1.00;-3.70;92476.00;;;;7398573;19;20146;-75
2022/12/09 07:42:22;;;;;;;17.77;11.07;;;-4.20;1.00;-3.60;92495.00;;;;7396091;19;20142;-76
2022/12/09 07:44:50;;;;;;;17.10;10.53;;;-4.10;1.00;-3.50;92481.00;;;;7398508;19;20145;-76
2022/12/09 07:47:24;;;;;;;15.20;9.47;;;-4.00;1.00;-3.40;92495.00;;;;7399099;19;20163;-76
2022/12/09 07:49:58;;;;;;;12.73;8.93;;;-4.00;1.00;-3.30;92494.00;;;;7396791;19;20155;-76
2022/12/09 07:52:33;;;;;;;16.70;10.17;;;-3.90;1.00;-3.30;92489.00;;;;7398927;19;20116;-76
2022/12/09 07:55:01;;;;;;;15.93;9.70;;;-3.80;1.00;-3.20;92482.00;;;;7398393;19;20499;-76
2022/12/09 07:57:28;;;;;;;14.60;9.53;;;-3.70;1.00;-3.20;92482.00;;;;7398848;19;20140;-76
2022/12/09 08:00:05;;;;;;;13.07;8.50;;;-3.60;99.90;-3.10;92493.00;;;;7396031;19;20749;-76
2022/12/09 08:02:32;;;;;;;16.13;9.53;;;-3.60;99.90;-3.00;92499.00;;;;7398314;19;20167;-76
2022/12/09 08:05:01;;;;;;;13.50;8.33;;;-3.50;99.90;-2.80;92497.00;;;;7398165;19;20151;-76
2022/12/09 08:07:36;;;;;;;13.07;7.97;;;-3.40;99.90;-2.60;92486.00;;;;7398346;19;20137;-76
2022/12/09 08:10:10;;;;;;;12.47;8.50;;;-3.30;99.90;-2.40;92477.00;;;;7398826;19;20233;-76
2022/12/09 08:12:44;;;;;;;15.07;8.40;;;-3.20;99.90;-2.30;92491.00;;;;7399804;19;20125;-76
2022/12/09 08:15:11;;;;;;;14.90;9.17;;;-3.00;59.00;-2.20;92487.00;;;;7395301;19;20135;-75
2022/12/09 08:17:39;;;;;;;13.57;8.53;;;-3.00;1.00;-2.20;92490.00;;;;7399253;19;20153;-76
2022/12/09 08:20:13;;;;;;;13.07;8.83;;;-2.90;1.00;-2.20;92495.00;;;;7398159;19;20148;-76
2022/12/09 08:22:41;;;;;;;12.07;8.40;;;-2.80;1.00;-2.10;92493.00;;;;7397674;19;20607;-75
2022/12/09 08:25:09;;;;;;;12.17;7.97;;;-2.70;1.00;-2.10;92496.00;;;;7396716;19;20137;-76
2022/12/09 08:27:43;;;;;;;12.53;9.23;;;-2.70;59.00;-1.90;92453.00;;;;7397697;19;20139;-77
2022/12/09 08:30:11;;;;;;;17.30;8.00;;;-2.50;99.90;-1.80;92471.00;;;;7398089;19;20605;-76
2022/12/09 08:32:39;;;;;;;12.73;8.27;;;-2.40;99.90;-1.50;92483.00;;;;7399328;19;20135;-75
2022/12/09 08:35:13;;;;;;;12.73;7.80;;;-2.30;20.30;-1.50;92472.00;;;;7396570;19;20603;-75
2022/12/09 08:37:42;;;;;;;13.07;8.43;;;-2.20;1.00;-1.50;92490.00;;;;7396929;19;20148;-76
2022/12/09 08:40:10;;;;;;;11.43;8.00;;;-2.10;1.00;-1.30;92465.00;;;;7393859;19;20133;-76
2022/12/09 08:42:45;;;;;;;11.63;7.87;;;-2.10;99.90;-1.50;92445.00;;;;7392447;19;20132;-77
2022/12/09 08:45:12;;;;;;;10.57;7.63;;;-2.20;99.90;-1.70;92470.00;;;;7396379;19;20129;-77
2022/12/09 08:47:40;;;;;;;12.23;8.00;;;-2.20;99.90;-1.80;92461.00;;;;7397289;19;20129;-76
2022/12/09 08:50:20;;;;;;;13.50;7.87;;;-2.30;99.90;-1.70;92456.00;;;;7394408;19;20163;-76
2022/12/09 08:52:54;;;;;;;11.97;8.23;;;-2.30;1.00;-1.80;92469.00;;;;7396885;19;20472;-76
2022/12/09 08:55:27;;;;;;;13.40;8.50;;;-2.30;53.70;-1.90;92455.00;;;;7396053;19;20133;-75
2022/12/09 08:57:56;;;;;;;12.37;8.20;;;-2.30;99.90;-1.70;92464.00;;;;7397494;19;20592;-75
2022/12/09 09:00:24;;;;;;;13.90;8.50;;;-2.30;99.90;-1.80;92457.00;;;;7395577;19;20145;-76
2022/12/09 09:02:58;;;;;;;12.27;8.13;;;-2.40;99.90;-1.90;92471.00;;;;7396541;19;20605;-75
2022/12/09 09:05:26;;;;;;;13.27;8.13;;;-2.50;1.00;-2.00;92450.00;;;;7397427;19;20133;-75
2022/12/09 09:07:54;;;;;;;13.33;8.93;;;-2.50;99.90;-2.00;92460.00;;;;7396843;19;20141;-75
2022/12/09 09:10:28;;;;;;;10.90;7.57;;;-2.50;1.00;-2.10;92443.00;;;;7397717;19;20135;-75
2022/12/09 09:12:56;;;;;;;11.97;8.13;;;-2.50;1.00;-2.00;92447.00;;;;7395508;19;20140;-75
2022/12/09 09:15:24;;;;;;;14.40;8.87;;;-2.50;1.00;-1.80;92433.00;;;;7396388;19;20197;-76
2022/12/09 09:17:58;;;;;;;13.67;8.67;;;-2.40;1.00;-1.90;92452.00;;;;7398271;19;20133;-75
2022/12/09 09:20:25;;;;;;;13.13;7.80;;;-2.40;1.00;-1.70;92468.00;;;;7394987;19;20477;-74
2022/12/09 09:22:53;;;;;;;11.23;8.63;;;-2.30;1.00;-1.50;92454.00;;;;7399327;19;20616;-75
2022/12/09 09:25:30;;;;;;;13.87;9.03;;;-2.20;99.90;-1.30;92465.00;;;;7397326;19;20129;-75
2022/12/09 09:27:57;;;;;;;14.43;9.40;;;-2.10;99.90;-1.10;92441.00;;;;7395964;19;20125;-76
2022/12/09 09:30:24;;;;;;;15.17;10.67;;;-2.00;1.00;-1.20;92439.00;;;;7397469;19;20140;-75
2022/12/09 09:32:58;;;;;;;17.27;9.80;;;-2.00;1.00;-1.20;92448.00;;;;7396151;19;20600;-76
2022/12/09 09:35:25;;;;;;;14.37;8.50;;;-1.90;1.00;-1.10;92436.00;;;;7397247;19;20136;-75
2022/12/09 09:37:53;;;;;;;11.33;8.00;;;-1.80;1.00;-1.10;92432.00;;;;7398111;19;20133;-75
2022/12/09 09:40:28;;;;;;;12.73;7.63;;;-1.80;1.00;-1.00;92453.00;;;;7391564;19;20125;-75
2022/12/09 09:42:57;;;;;;;15.87;9.00;;;-1.80;99.90;-1.00;92445.00;;;;7394377;19;20146;-75
2022/12/09 09:45:25;;;;;;;13.63;8.80;;;-1.70;1.00;-0.70;92419.00;;;;7395086;19;20174;-75
2022/12/09 09:48:08;;;;;;;14.27;9.43;;;-1.60;1.00;-0.70;92419.00;;;;7397609;19;20598;-74
2022/12/09 09:50:51;;;;;;;14.40;10.10;;;-1.60;99.90;-0.60;92433.00;;;;7396743;19;20140;-75
2022/12/09 09:53:31;;;;;;;14.60;9.13;;;-1.50;1.00;-0.40;92426.00;;;;7402697;19;20140;-75
2022/12/09 09:56:24;;;;;;;13.73;9.03;;;-1.40;99.90;-0.40;92441.00;;;;7404211;19;20171;-75
2022/12/09 09:59:19;;;;;;;12.70;8.30;;;-1.30;1.00;-0.20;92434.00;;;;7402071;19;20145;-75
2022/12/09 10:02:11;;;;;;;14.07;8.97;;;-1.20;1.00;-0.20;92433.00;;;;7403642;19;20168;-75
2022/12/09 10:05:16;;;;;;;14.50;9.30;;;-1.00;1.00;-0.10;92435.00;;;;7403642;19;20168;-74
2022/12/09 10:07:55;;;;;;;11.90;8.73;;;-0.80;1.00;0.10;92432.00;;;;7401670;19;20132;-75
2022/12/09 10:10:46;;;;;;;15.67;11.00;;;-0.70;1.00;0.10;92441.00;;;;7403341;19;20144;-75
2022/12/09 10:14:04;;;;;;;13.40;9.30;;;-0.70;99.90;0.20;92430.00;;;;7399076;19;20133;-75
2022/12/09 10:17:06;;;;;;;12.57;8.77;;;-0.60;99.90;0.30;92419.00;;;;7402207;19;20137;-74
2022/12/09 10:19:40;;;;;;;15.67;10.47;;;-0.60;99.90;0.40;92398.00;;;;7402202;19;20129;-74
2022/12/09 10:22:23;;;;;;;14.73;10.40;;;-0.50;99.90;0.50;92416.00;;;;7402004;19;20926;-74
2022/12/09 10:24:56;;;;;;;15.67;9.63;;;-0.30;1.00;0.90;92427.00;;;;7401233;19;20140;-76
2022/12/09 10:28:06;;;;;;;16.50;9.90;;;-0.20;99.90;0.70;92417.00;;;;7401904;19;20141;-76
2022/12/09 10:30:33;;;;;;;14.50;10.07;;;-0.10;1.00;0.80;92421.00;;;;7400353;19;20140;-78
2022/12/09 10:33:19;;;;;;;16.23;11.57;;;-0.10;1.00;0.70;92420.00;;;;7403342;19;20136;-78
2022/12/09 10:35:47;;;;;;;13.83;9.80;;;0.00;11.20;1.00;92400.00;;;;7401746;19;20191;-75
2022/12/09 10:38:23;;;;;;;14.87;10.00;;;0.30;99.90;1.30;92397.00;;;;7401770;19;20491;-76
2022/12/09 10:43:33;;;;;;;20.03;10.23;;;0.40;99.90;1.20;92404.00;;;;7403196;19;20163;-76
2022/12/09 10:44:20;;;;;;;16.07;10.80;;;0.40;13.90;1.20;92398.00;;;;7397374;19;20573;-76
2022/12/09 10:47:03;;;;;;;17.67;10.60;;;0.40;3.90;1.40;92384.00;;;;7402044;19;20132;-76
2022/12/09 10:49:47;;;;;;;14.77;10.60;;;0.50;99.90;1.40;92395.00;;;;7399636;19;20152;-76
2022/12/09 10:52:22;;;;;;;16.17;10.00;;;0.70;99.90;1.70;92376.00;;;;7397263;19;20137;-76
2022/12/09 10:54:57;;;;;;;14.47;10.20;;;0.90;99.90;1.80;92395.00;;;;7401881;19;20199;-76
2022/12/09 10:57:28;;;;;;;16.03;10.47;;;1.00;1.00;1.70;92394.00;;;;7400783;19;20152;-76
2022/12/09 11:00:18;;;;;;;14.03;9.53;;;1.30;1.00;1.40;92412.00;;;;7398313;19;20463;-76
2022/12/09 11:03:00;;;;;;;13.77;10.00;;;1.20;1.00;1.10;92391.00;;;;7402353;19;20132;-75
2022/12/09 11:05:33;;;;;;;13.73;10.13;;;1.20;45.10;1.50;92400.00;;;;7401097;19;20600;-76
2022/12/09 11:08:07;;;;;;;14.07;10.03;;;1.10;45.80;1.10;92387.00;;;;7401662;19;20128;-76
2022/12/09 11:10:36;;;;;;;15.13;9.70;;;1.10;1.00;1.30;92375.00;;;;7401706;19;20604;-76
2022/12/09 11:13:16;;;;;;;14.60;9.63;;;1.10;1.00;1.40;92393.00;;;;7402470;19;20604;-76
2022/12/09 11:15:52;;;;;;;15.33;10.77;;;1.10;99.90;1.40;92398.00;;;;7400843;19;20204;-76
2022/12/09 11:18:30;;;;;;;14.83;10.63;;;1.10;1.00;1.40;92378.00;;;;7402708;19;20133;-76
2022/12/09 11:21:25;;;;;;;14.97;9.63;;;1.20;1.30;1.00;92385.00;;;;7400761;19;20149;-76
2022/12/09 11:23:54;;;;;;;14.93;10.30;;;1.10;99.90;1.40;92358.00;;;;7400046;19;20669;-76